Mansfield, Tennessee
Current Conditions -  °F | °C
As of 10:35 PM on Thursday 27 Nov 2014 (Local Time) from KPHT Reporting Station
NA  
Wind Chill: 21°   Ceiling: NA
Heat Index: 21°   Visibility: NA
Dew Point: 19°   Wind: 0mph
Humidity: 93%   Direction: NA
Pressure: 30.45"   Gusts: NA
Location:  36.18°N, 88.3°W
Report Text: KPHT 280435Z AUTO 00000KT M06/M07 A3045 RMK
Loading
Personal Weather Stations






























Interactive Weather Map New forecast layout! Learn more

10-Day Weather Forecast

Advertisements
Track Severe Weather on mobile